sensor_id;sensor_type;location;lat;lon;timestamp;P1;durP1;ratioP1;P2;durP2;ratioP2
38053;SDS011;23859;50.672;7.164;2024-01-15T00:00:49;1142.97;;;999.90;;
38053;SDS011;23859;50.672;7.164;2024-01-15T00:03:15;1117.57;;;999.90;;
38053;SDS011;23859;50.672;7.164;2024-01-15T00:05:41;1165.95;;;999.90;;
38053;SDS011;23859;50.672;7.164;2024-01-15T00:08:07;1086.95;;;991.63;;
38053;SDS011;23859;50.672;7.164;2024-01-15T00:10:33;1032.13;;;957.03;;
38053;SDS011;23859;50.672;7.164;2024-01-15T00:12:59;1026.93;;;948.40;;
38053;SDS011;23859;50.672;7.164;2024-01-15T00:15:25;1044.47;;;966.33;;
38053;SDS011;23859;50.672;7.164;2024-01-15T00:17:53;1026.82;;;947.65;;
38053;SDS011;23859;50.672;7.164;2024-01-15T00:20:19;1068.53;;;986.25;;
38053;SDS011;23859;50.672;7.164;2024-01-15T00:22:45;1002.92;;;928.03;;
38053;SDS011;23859;50.672;7.164;2024-01-15T00:25:11;1051.55;;;971.97;;
38053;SDS011;23859;50.672;7.164;2024-01-15T00:27:37;1030.70;;;956.10;;
38053;SDS011;23859;50.672;7.164;2024-01-15T00:30:03;1036.50;;;959.70;;
38053;SDS011;23859;50.672;7.164;2024-01-15T00:32:30;1011.35;;;935.55;;
38053;SDS011;23859;50.672;7.164;2024-01-15T00:34:56;1065.63;;;982.47;;
38053;SDS011;23859;50.672;7.164;2024-01-15T00:37:22;1011.42;;;935.13;;
38053;SDS011;23859;50.672;7.164;2024-01-15T00:39:48;1045.03;;;965.88;;
38053;SDS011;23859;50.672;7.164;2024-01-15T00:42:14;991.88;;;916.95;;
38053;SDS011;23859;50.672;7.164;2024-01-15T00:44:41;999.33;;;926.90;;
38053;SDS011;23859;50.672;7.164;2024-01-15T00:47:07;1020.15;;;942.67;;
38053;SDS011;23859;50.672;7.164;2024-01-15T00:49:34;1006.83;;;930.90;;
38053;SDS011;23859;50.672;7.164;2024-01-15T00:52:00;987.25;;;912.75;;
38053;SDS011;23859;50.672;7.164;2024-01-15T00:54:26;1000.00;;;925.65;;
38053;SDS011;23859;50.672;7.164;2024-01-15T00:56:52;1054.32;;;971.72;;
38053;SDS011;23859;50.672;7.164;2024-01-15T00:59:19;1032.40;;;952.60;;
38053;SDS011;23859;50.672;7.164;2024-01-15T01:01:46;1045.13;;;965.92;;
38053;SDS011;23859;50.672;7.164;2024-01-15T01:04:12;1005.80;;;930.72;;
38053;SDS011;23859;50.672;7.164;2024-01-15T01:06:38;1020.33;;;945.67;;
38053;SDS011;23859;50.672;7.164;2024-01-15T01:09:04;993.85;;;919.75;;
38053;SDS011;23859;50.672;7.164;2024-01-15T01:11:30;1005.25;;;929.70;;
38053;SDS011;23859;50.672;7.164;2024-01-15T01:13:56;1026.32;;;950.65;;
38053;SDS011;23859;50.672;7.164;2024-01-15T01:16:22;1007.03;;;932.90;;
38053;SDS011;23859;50.672;7.164;2024-01-15T01:18:49;944.35;;;874.97;;
38053;SDS011;23859;50.672;7.164;2024-01-15T01:21:15;986.42;;;911.35;;
38053;SDS011;23859;50.672;7.164;2024-01-15T01:23:41;987.50;;;913.15;;
38053;SDS011;23859;50.672;7.164;2024-01-15T01:26:07;974.45;;;903.90;;
38053;SDS011;23859;50.672;7.164;2024-01-15T01:28:33;1031.55;;;955.55;;
38053;SDS011;23859;50.672;7.164;2024-01-15T01:30:59;1062.10;;;977.95;;
38053;SDS011;23859;50.672;7.164;2024-01-15T01:33:25;999.03;;;926.53;;
38053;SDS011;23859;50.672;7.164;2024-01-15T01:35:52;1010.20;;;935.63;;
38053;SDS011;23859;50.672;7.164;2024-01-15T01:38:18;992.78;;;919.58;;
38053;SDS011;23859;50.672;7.164;2024-01-15T01:40:44;963.15;;;894.60;;
38053;SDS011;23859;50.672;7.164;2024-01-15T01:43:10;971.33;;;901.22;;
38053;SDS011;23859;50.672;7.164;2024-01-15T01:45:36;959.42;;;888.08;;
38053;SDS011;23859;50.672;7.164;2024-01-15T01:48:03;970.60;;;898.17;;
38053;SDS011;23859;50.672;7.164;2024-01-15T01:50:30;1028.25;;;948.47;;
38053;SDS011;23859;50.672;7.164;2024-01-15T01:52:57;978.97;;;908.13;;
38053;SDS011;23859;50.672;7.164;2024-01-15T01:55:24;949.03;;;879.70;;
38053;SDS011;23859;50.672;7.164;2024-01-15T01:57:54;1032.40;;;954.88;;
38053;SDS011;23859;50.672;7.164;2024-01-15T02:00:21;987.90;;;915.65;;
38053;SDS011;23859;50.672;7.164;2024-01-15T02:02:48;995.60;;;923.25;;
38053;SDS011;23859;50.672;7.164;2024-01-15T02:05:15;1009.85;;;934.97;;
38053;SDS011;23859;50.672;7.164;2024-01-15T02:07:45;1024.95;;;946.17;;
38053;SDS011;23859;50.672;7.164;2024-01-15T02:10:11;998.30;;;921.45;;
38053;SDS011;23859;50.672;7.164;2024-01-15T02:12:38;1026.10;;;948.70;;
38053;SDS011;23859;50.672;7.164;2024-01-15T02:15:04;991.80;;;915.72;;
38053;SDS011;23859;50.672;7.164;2024-01-15T02:17:30;1036.28;;;958.78;;
38053;SDS011;23859;50.672;7.164;2024-01-15T02:19:56;952.15;;;885.90;;
38053;SDS011;23859;50.672;7.164;2024-01-15T02:22:22;990.30;;;915.15;;
38053;SDS011;23859;50.672;7.164;2024-01-15T02:24:48;1001.20;;;929.30;;
38053;SDS011;23859;50.672;7.164;2024-01-15T02:27:14;957.22;;;883.05;;
38053;SDS011;23859;50.672;7.164;2024-01-15T02:29:41;1036.32;;;957.63;;
38053;SDS011;23859;50.672;7.164;2024-01-15T02:32:08;995.10;;;922.00;;
38053;SDS011;23859;50.672;7.164;2024-01-15T02:34:34;1027.38;;;951.13;;
38053;SDS011;23859;50.672;7.164;2024-01-15T02:37:00;960.15;;;891.28;;
38053;SDS011;23859;50.672;7.164;2024-01-15T02:39:26;1048.72;;;972.78;;
38053;SDS011;23859;50.672;7.164;2024-01-15T02:41:54;1024.35;;;948.58;;
38053;SDS011;23859;50.672;7.164;2024-01-15T02:44:22;991.05;;;918.70;;
38053;SDS011;23859;50.672;7.164;2024-01-15T02:46:48;959.33;;;888.72;;
38053;SDS011;23859;50.672;7.164;2024-01-15T02:49:14;954.80;;;886.40;;
38053;SDS011;23859;50.672;7.164;2024-01-15T02:51:40;1007.97;;;931.92;;
38053;SDS011;23859;50.672;7.164;2024-01-15T02:54:07;984.63;;;914.42;;
38053;SDS011;23859;50.672;7.164;2024-01-15T02:56:33;974.80;;;901.90;;
38053;SDS011;23859;50.672;7.164;2024-01-15T02:58:59;983.10;;;909.30;;
38053;SDS011;23859;50.672;7.164;2024-01-15T03:01:25;986.17;;;915.03;;
38053;SDS011;23859;50.672;7.164;2024-01-15T03:03:51;979.92;;;906.47;;
38053;SDS011;23859;50.672;7.164;2024-01-15T03:06:17;963.95;;;896.42;;
38053;SDS011;23859;50.672;7.164;2024-01-15T03:08:43;980.05;;;908.22;;
38053;SDS011;23859;50.672;7.164;2024-01-15T03:11:09;1059.15;;;979.30;;
38053;SDS011;23859;50.672;7.164;2024-01-15T03:13:35;981.72;;;909.22;;
38053;SDS011;23859;50.672;7.164;2024-01-15T03:16:02;983.35;;;912.47;;
38053;SDS011;23859;50.672;7.164;2024-01-15T03:18:29;945.13;;;878.55;;
38053;SDS011;23859;50.672;7.164;2024-01-15T03:20:55;978.03;;;904.83;;
38053;SDS011;23859;50.672;7.164;2024-01-15T03:23:21;969.47;;;898.13;;
38053;SDS011;23859;50.672;7.164;2024-01-15T03:25:47;1055.50;;;975.35;;
38053;SDS011;23859;50.672;7.164;2024-01-15T03:28:14;992.38;;;920.83;;
38053;SDS011;23859;50.672;7.164;2024-01-15T03:30:40;994.20;;;920.30;;
38053;SDS011;23859;50.672;7.164;2024-01-15T03:33:06;921.92;;;855.63;;
38053;SDS011;23859;50.672;7.164;2024-01-15T03:35:32;1019.58;;;944.80;;
38053;SDS011;23859;50.672;7.164;2024-01-15T03:37:58;1002.63;;;930.80;;
38053;SDS011;23859;50.672;7.164;2024-01-15T03:40:24;1065.13;;;985.30;;
38053;SDS011;23859;50.672;7.164;2024-01-15T03:42:50;1006.28;;;932.13;;
38053;SDS011;23859;50.672;7.164;2024-01-15T03:45:16;996.05;;;923.70;;
38053;SDS011;23859;50.672;7.164;2024-01-15T03:47:42;971.33;;;896.65;;
38053;SDS011;23859;50.672;7.164;2024-01-15T03:50:08;947.15;;;879.28;;
38053;SDS011;23859;50.672;7.164;2024-01-15T03:52:35;940.72;;;871.65;;
38053;SDS011;23859;50.672;7.164;2024-01-15T03:55:01;1014.85;;;936.28;;
38053;SDS011;23859;50.672;7.164;2024-01-15T03:57:28;1025.28;;;949.08;;
38053;SDS011;23859;50.672;7.164;2024-01-15T03:59:54;959.63;;;888.90;;
38053;SDS011;23859;50.672;7.164;2024-01-15T04:02:20;979.45;;;905.67;;
38053;SDS011;23859;50.672;7.164;2024-01-15T04:04:46;991.40;;;916.25;;
38053;SDS011;23859;50.672;7.164;2024-01-15T04:07:12;910.22;;;847.20;;
38053;SDS011;23859;50.672;7.164;2024-01-15T04:09:38;1002.65;;;928.88;;
38053;SDS011;23859;50.672;7.164;2024-01-15T04:12:04;940.75;;;874.30;;
38053;SDS011;23859;50.672;7.164;2024-01-15T04:14:30;1023.72;;;947.65;;
38053;SDS011;23859;50.672;7.164;2024-01-15T04:16:57;945.35;;;875.70;;
38053;SDS011;23859;50.672;7.164;2024-01-15T04:19:23;1088.05;;;997.08;;
38053;SDS011;23859;50.672;7.164;2024-01-15T04:21:49;1005.08;;;925.63;;
38053;SDS011;23859;50.672;7.164;2024-01-15T04:24:15;988.47;;;917.40;;
38053;SDS011;23859;50.672;7.164;2024-01-15T04:26:42;993.80;;;919.95;;
38053;SDS011;23859;50.672;7.164;2024-01-15T04:29:09;965.80;;;891.92;;
38053;SDS011;23859;50.672;7.164;2024-01-15T04:31:35;1007.20;;;931.72;;
38053;SDS011;23859;50.672;7.164;2024-01-15T04:34:01;957.80;;;889.70;;
38053;SDS011;23859;50.672;7.164;2024-01-15T04:36:27;978.42;;;903.78;;
38053;SDS011;23859;50.672;7.164;2024-01-15T04:38:53;983.40;;;912.58;;
38053;SDS011;23859;50.672;7.164;2024-01-15T04:41:19;1005.25;;;934.85;;
38053;SDS011;23859;50.672;7.164;2024-01-15T04:43:45;968.63;;;897.10;;
38053;SDS011;23859;50.672;7.164;2024-01-15T04:46:11;988.65;;;915.08;;
38053;SDS011;23859;50.672;7.164;2024-01-15T04:48:37;993.63;;;918.22;;
38053;SDS011;23859;50.672;7.164;2024-01-15T04:51:04;952.35;;;883.72;;
38053;SDS011;23859;50.672;7.164;2024-01-15T04:53:30;1030.13;;;952.85;;
38053;SDS011;23859;50.672;7.164;2024-01-15T04:55:57;1030.63;;;951.47;;
38053;SDS011;23859;50.672;7.164;2024-01-15T04:58:23;985.00;;;910.88;;
38053;SDS011;23859;50.672;7.164;2024-01-15T05:00:51;966.60;;;892.38;;
38053;SDS011;23859;50.672;7.164;2024-01-15T05:03:17;1025.72;;;950.53;;
38053;SDS011;23859;50.672;7.164;2024-01-15T05:05:43;1055.57;;;974.80;;
38053;SDS011;23859;50.672;7.164;2024-01-15T05:08:09;988.80;;;916.22;;
38053;SDS011;23859;50.672;7.164;2024-01-15T05:10:36;980.67;;;908.58;;
38053;SDS011;23859;50.672;7.164;2024-01-15T05:13:02;1000.08;;;928.22;;
38053;SDS011;23859;50.672;7.164;2024-01-15T05:15:28;1013.58;;;935.25;;
38053;SDS011;23859;50.672;7.164;2024-01-15T05:17:54;1000.67;;;926.88;;
38053;SDS011;23859;50.672;7.164;2024-01-15T05:20:21;1042.45;;;965.67;;
38053;SDS011;23859;50.672;7.164;2024-01-15T05:22:47;1017.45;;;944.22;;
38053;SDS011;23859;50.672;7.164;2024-01-15T05:25:13;991.53;;;920.03;;
38053;SDS011;23859;50.672;7.164;2024-01-15T05:27:39;1009.60;;;934.17;;
38053;SDS011;23859;50.672;7.164;2024-01-15T05:30:05;1006.25;;;931.63;;
38053;SDS011;23859;50.672;7.164;2024-01-15T05:32:32;1075.57;;;992.08;;
38053;SDS011;23859;50.672;7.164;2024-01-15T05:34:58;1010.80;;;935.72;;
38053;SDS011;23859;50.672;7.164;2024-01-15T05:37:24;1001.75;;;927.40;;
38053;SDS011;23859;50.672;7.164;2024-01-15T05:39:50;984.05;;;912.90;;
38053;SDS011;23859;50.672;7.164;2024-01-15T05:42:16;1040.50;;;961.78;;
38053;SDS011;23859;50.672;7.164;2024-01-15T05:44:42;1022.63;;;946.72;;
38053;SDS011;23859;50.672;7.164;2024-01-15T05:47:08;1042.95;;;963.35;;
38053;SDS011;23859;50.672;7.164;2024-01-15T05:49:35;1017.50;;;939.40;;
38053;SDS011;23859;50.672;7.164;2024-01-15T05:52:01;1030.03;;;952.55;;
38053;SDS011;23859;50.672;7.164;2024-01-15T05:54:27;988.65;;;915.33;;
38053;SDS011;23859;50.672;7.164;2024-01-15T05:56:54;1034.65;;;960.35;;
38053;SDS011;23859;50.672;7.164;2024-01-15T05:59:20;1041.95;;;963.53;;
38053;SDS011;23859;50.672;7.164;2024-01-15T06:01:46;1038.18;;;961.97;;
38053;SDS011;23859;50.672;7.164;2024-01-15T06:04:12;1011.13;;;937.95;;
38053;SDS011;23859;50.672;7.164;2024-01-15T06:06:38;1014.72;;;940.88;;
38053;SDS011;23859;50.672;7.164;2024-01-15T06:09:04;983.63;;;913.60;;
38053;SDS011;23859;50.672;7.164;2024-01-15T06:11:31;1028.00;;;950.67;;
38053;SDS011;23859;50.672;7.164;2024-01-15T06:13:57;1038.65;;;959.25;;
38053;SDS011;23859;50.672;7.164;2024-01-15T06:16:25;1008.45;;;932.33;;
38053;SDS011;23859;50.672;7.164;2024-01-15T06:18:51;1038.47;;;960.50;;
38053;SDS011;23859;50.672;7.164;2024-01-15T06:21:17;1063.15;;;982.88;;
38053;SDS011;23859;50.672;7.164;2024-01-15T06:23:43;998.33;;;924.72;;
38053;SDS011;23859;50.672;7.164;2024-01-15T06:26:11;1005.20;;;932.03;;
38053;SDS011;23859;50.672;7.164;2024-01-15T06:28:37;1034.88;;;957.65;;
38053;SDS011;23859;50.672;7.164;2024-01-15T06:31:03;1043.25;;;965.65;;
38053;SDS011;23859;50.672;7.164;2024-01-15T06:33:31;1017.50;;;940.88;;
38053;SDS011;23859;50.672;7.164;2024-01-15T06:35:57;1032.50;;;952.65;;
38053;SDS011;23859;50.672;7.164;2024-01-15T06:38:23;1034.93;;;955.28;;
38053;SDS011;23859;50.672;7.164;2024-01-15T06:40:50;1035.68;;;953.47;;
38053;SDS011;23859;50.672;7.164;2024-01-15T06:43:17;990.28;;;916.10;;
38053;SDS011;23859;50.672;7.164;2024-01-15T06:45:43;1040.20;;;963.50;;
38053;SDS011;23859;50.672;7.164;2024-01-15T06:48:09;1050.88;;;970.55;;
38053;SDS011;23859;50.672;7.164;2024-01-15T06:50:39;1046.30;;;967.80;;
38053;SDS011;23859;50.672;7.164;2024-01-15T06:53:05;1032.63;;;952.70;;
38053;SDS011;23859;50.672;7.164;2024-01-15T06:55:31;1031.32;;;952.85;;
38053;SDS011;23859;50.672;7.164;2024-01-15T06:57:57;1065.75;;;983.30;;
38053;SDS011;23859;50.672;7.164;2024-01-15T07:00:23;1030.68;;;953.63;;
38053;SDS011;23859;50.672;7.164;2024-01-15T07:02:49;1048.28;;;968.65;;
38053;SDS011;23859;50.672;7.164;2024-01-15T07:05:15;1008.30;;;930.83;;
38053;SDS011;23859;50.672;7.164;2024-01-15T07:07:41;1031.18;;;949.35;;
38053;SDS011;23859;50.672;7.164;2024-01-15T07:10:07;1065.80;;;981.45;;
38053;SDS011;23859;50.672;7.164;2024-01-15T07:12:34;1060.88;;;977.35;;
38053;SDS011;23859;50.672;7.164;2024-01-15T07:15:00;1056.75;;;973.45;;
38053;SDS011;23859;50.672;7.164;2024-01-15T07:17:27;1058.85;;;972.40;;
38053;SDS011;23859;50.672;7.164;2024-01-15T07:19:53;1113.63;;;999.90;;
38053;SDS011;23859;50.672;7.164;2024-01-15T07:22:19;1050.50;;;972.17;;
38053;SDS011;23859;50.672;7.164;2024-01-15T07:24:45;1078.03;;;991.65;;
38053;SDS011;23859;50.672;7.164;2024-01-15T07:27:11;1081.05;;;995.17;;
38053;SDS011;23859;50.672;7.164;2024-01-15T07:29:37;1095.03;;;999.90;;
38053;SDS011;23859;50.672;7.164;2024-01-15T07:32:03;1085.72;;;994.05;;
38053;SDS011;23859;50.672;7.164;2024-01-15T07:34:30;1061.53;;;976.42;;
38053;SDS011;23859;50.672;7.164;2024-01-15T07:36:57;1091.78;;;994.60;;
38053;SDS011;23859;50.672;7.164;2024-01-15T07:39:23;1052.82;;;971.15;;
38053;SDS011;23859;50.672;7.164;2024-01-15T07:41:50;1020.85;;;941.47;;
38053;SDS011;23859;50.672;7.164;2024-01-15T07:44:16;1073.10;;;987.70;;
38053;SDS011;23859;50.672;7.164;2024-01-15T07:46:46;1140.18;;;999.90;;
38053;SDS011;23859;50.672;7.164;2024-01-15T07:49:12;1084.50;;;996.20;;
38053;SDS011;23859;50.672;7.164;2024-01-15T07:51:38;1053.40;;;970.22;;
38053;SDS011;23859;50.672;7.164;2024-01-15T07:54:05;1089.93;;;995.97;;
38053;SDS011;23859;50.672;7.164;2024-01-15T07:56:41;1078.63;;;991.58;;
38053;SDS011;23859;50.672;7.164;2024-01-15T07:59:22;1058.70;;;975.92;;
38053;SDS011;23859;50.672;7.164;2024-01-15T08:01:48;1100.20;;;999.90;;
38053;SDS011;23859;50.672;7.164;2024-01-15T08:04:15;1081.00;;;993.05;;
38053;SDS011;23859;50.672;7.164;2024-01-15T08:06:41;1102.18;;;999.90;;
38053;SDS011;23859;50.672;7.164;2024-01-15T08:09:07;1096.25;;;999.90;;
38053;SDS011;23859;50.672;7.164;2024-01-15T08:11:33;1134.15;;;999.90;;
38053;SDS011;23859;50.672;7.164;2024-01-15T08:13:59;1118.32;;;999.90;;
38053;SDS011;23859;50.672;7.164;2024-01-15T08:16:26;1093.55;;;998.10;;
38053;SDS011;23859;50.672;7.164;2024-01-15T08:18:52;1075.80;;;992.03;;
38053;SDS011;23859;50.672;7.164;2024-01-15T08:21:18;1095.22;;;999.72;;
38053;SDS011;23859;50.672;7.164;2024-01-15T08:23:45;1080.85;;;994.28;;
38053;SDS011;23859;50.672;7.164;2024-01-15T08:26:11;1058.32;;;974.53;;
38053;SDS011;23859;50.672;7.164;2024-01-15T08:28:37;1046.35;;;964.33;;
38053;SDS011;23859;50.672;7.164;2024-01-15T08:31:03;1083.13;;;990.78;;
38053;SDS011;23859;50.672;7.164;2024-01-15T08:33:29;1105.30;;;999.90;;
38053;SDS011;23859;50.672;7.164;2024-01-15T08:35:55;1080.88;;;990.08;;
38053;SDS011;23859;50.672;7.164;2024-01-15T08:38:21;1051.43;;;966.70;;
38053;SDS011;23859;50.672;7.164;2024-01-15T08:40:48;1076.65;;;989.50;;
38053;SDS011;23859;50.672;7.164;2024-01-15T08:43:14;1033.35;;;954.50;;
38053;SDS011;23859;50.672;7.164;2024-01-15T08:45:40;1070.60;;;984.38;;
38053;SDS011;23859;50.672;7.164;2024-01-15T08:48:06;1105.47;;;999.90;;
38053;SDS011;23859;50.672;7.164;2024-01-15T08:50:32;1126.05;;;999.90;;
38053;SDS011;23859;50.672;7.164;2024-01-15T08:52:58;1061.28;;;979.28;;
38053;SDS011;23859;50.672;7.164;2024-01-15T08:55:24;1103.28;;;999.90;;
38053;SDS011;23859;50.672;7.164;2024-01-15T08:57:50;1113.50;;;999.90;;
38053;SDS011;23859;50.672;7.164;2024-01-15T09:00:17;1098.88;;;997.92;;
38053;SDS011;23859;50.672;7.164;2024-01-15T09:02:43;1129.28;;;999.90;;
38053;SDS011;23859;50.672;7.164;2024-01-15T09:05:10;1128.47;;;999.90;;
38053;SDS011;23859;50.672;7.164;2024-01-15T09:07:36;1076.75;;;988.17;;
38053;SDS011;23859;50.672;7.164;2024-01-15T09:10:02;1114.97;;;999.90;;
38053;SDS011;23859;50.672;7.164;2024-01-15T09:12:28;1057.82;;;971.85;;
38053;SDS011;23859;50.672;7.164;2024-01-15T09:14:54;1105.30;;;999.90;;
38053;SDS011;23859;50.672;7.164;2024-01-15T09:17:20;1114.38;;;999.90;;
38053;SDS011;23859;50.672;7.164;2024-01-15T09:19:48;1097.20;;;999.90;;
38053;SDS011;23859;50.672;7.164;2024-01-15T09:22:14;1035.35;;;958.10;;
38053;SDS011;23859;50.672;7.164;2024-01-15T09:24:44;1085.65;;;993.30;;
38053;SDS011;23859;50.672;7.164;2024-01-15T09:27:11;1116.35;;;999.90;;
38053;SDS011;23859;50.672;7.164;2024-01-15T09:29:37;1059.68;;;974.00;;
38053;SDS011;23859;50.672;7.164;2024-01-15T09:32:05;1130.07;;;999.90;;
38053;SDS011;23859;50.672;7.164;2024-01-15T09:34:32;1095.93;;;998.78;;
38053;SDS011;23859;50.672;7.164;2024-01-15T09:36:59;1146.10;;;999.90;;
38053;SDS011;23859;50.672;7.164;2024-01-15T09:39:25;1110.35;;;999.90;;
38053;SDS011;23859;50.672;7.164;2024-01-15T09:41:52;1193.25;;;999.90;;
38053;SDS011;23859;50.672;7.164;2024-01-15T09:44:19;1092.78;;;998.72;;
38053;SDS011;23859;50.672;7.164;2024-01-15T09:46:46;1107.78;;;999.90;;
38053;SDS011;23859;50.672;7.164;2024-01-15T09:49:15;1141.85;;;999.90;;
38053;SDS011;23859;50.672;7.164;2024-01-15T09:51:42;1079.70;;;994.85;;
38053;SDS011;23859;50.672;7.164;2024-01-15T09:54:19;1136.90;;;999.90;;
38053;SDS011;23859;50.672;7.164;2024-01-15T09:56:46;1110.22;;;999.90;;
38053;SDS011;23859;50.672;7.164;2024-01-15T09:59:14;1098.15;;;998.78;;
38053;SDS011;23859;50.672;7.164;2024-01-15T10:01:43;1052.80;;;968.88;;
38053;SDS011;23859;50.672;7.164;2024-01-15T10:04:12;1096.53;;;997.63;;
38053;SDS011;23859;50.672;7.164;2024-01-15T10:06:39;1067.13;;;984.72;;
38053;SDS011;23859;50.672;7.164;2024-01-15T10:09:10;1178.03;;;999.90;;
38053;SDS011;23859;50.672;7.164;2024-01-15T10:11:43;1109.57;;;999.90;;
38053;SDS011;23859;50.672;7.164;2024-01-15T10:14:10;1093.10;;;999.90;;
38053;SDS011;23859;50.672;7.164;2024-01-15T10:16:40;979.33;;;907.50;;
38053;SDS011;23859;50.672;7.164;2024-01-15T10:19:07;1096.70;;;999.55;;
38053;SDS011;23859;50.672;7.164;2024-01-15T10:21:33;1048.00;;;966.03;;
38053;SDS011;23859;50.672;7.164;2024-01-15T10:24:01;1120.97;;;999.90;;
38053;SDS011;23859;50.672;7.164;2024-01-15T10:26:28;1034.72;;;956.58;;
38053;SDS011;23859;50.672;7.164;2024-01-15T10:28:54;1071.78;;;985.75;;
38053;SDS011;23859;50.672;7.164;2024-01-15T10:31:20;1078.05;;;993.63;;
38053;SDS011;23859;50.672;7.164;2024-01-15T10:33:49;1099.68;;;999.90;;
38053;SDS011;23859;50.672;7.164;2024-01-15T10:36:16;1046.22;;;966.83;;
38053;SDS011;23859;50.672;7.164;2024-01-15T10:38:42;1051.97;;;970.75;;
38053;SDS011;23859;50.672;7.164;2024-01-15T10:41:09;1090.40;;;997.92;;
38053;SDS011;23859;50.672;7.164;2024-01-15T10:43:36;1052.97;;;970.78;;
38053;SDS011;23859;50.672;7.164;2024-01-15T10:46:03;1048.32;;;969.65;;
38053;SDS011;23859;50.672;7.164;2024-01-15T10:48:29;1057.15;;;973.05;;
38053;SDS011;23859;50.672;7.164;2024-01-15T10:50:56;1143.45;;;999.90;;
38053;SDS011;23859;50.672;7.164;2024-01-15T10:53:23;1033.53;;;955.25;;
38053;SDS011;23859;50.672;7.164;2024-01-15T10:55:53;1080.63;;;989.90;;
38053;SDS011;23859;50.672;7.164;2024-01-15T10:58:21;1068.07;;;985.42;;
38053;SDS011;23859;50.672;7.164;2024-01-15T11:00:48;1018.63;;;939.78;;
38053;SDS011;23859;50.672;7.164;2024-01-15T11:03:14;1078.50;;;989.10;;
38053;SDS011;23859;50.672;7.164;2024-01-15T11:05:42;1062.80;;;962.63;;
38053;SDS011;23859;50.672;7.164;2024-01-15T11:08:08;1002.33;;;924.88;;
38053;SDS011;23859;50.672;7.164;2024-01-15T11:10:45;991.50;;;912.75;;
38053;SDS011;23859;50.672;7.164;2024-01-15T11:13:20;920.72;;;855.85;;
38053;SDS011;23859;50.672;7.164;2024-01-15T11:15:56;982.40;;;906.92;;
38053;SDS011;23859;50.672;7.164;2024-01-15T11:18:31;1047.00;;;965.80;;
38053;SDS011;23859;50.672;7.164;2024-01-15T11:23:42;1034.90;;;957.25;;
38053;SDS011;23859;50.672;7.164;2024-01-15T11:28:57;1035.63;;;954.53;;
38053;SDS011;23859;50.672;7.164;2024-01-15T11:34:14;1009.55;;;935.83;;
38053;SDS011;23859;50.672;7.164;2024-01-15T11:41:59;1048.47;;;967.97;;
38053;SDS011;23859;50.672;7.164;2024-01-15T11:44:27;1073.38;;;987.83;;
38053;SDS011;23859;50.672;7.164;2024-01-15T11:52:16;1006.90;;;930.60;;
38053;SDS011;23859;50.672;7.164;2024-01-15T11:55:00;976.60;;;905.15;;
38053;SDS011;23859;50.672;7.164;2024-01-15T11:58:11;1008.47;;;930.50;;
38053;SDS011;23859;50.672;7.164;2024-01-15T12:00:22;1053.88;;;974.53;;
38053;SDS011;23859;50.672;7.164;2024-01-15T12:02:49;1024.30;;;946.63;;
38053;SDS011;23859;50.672;7.164;2024-01-15T12:05:18;1059.85;;;979.13;;
38053;SDS011;23859;50.672;7.164;2024-01-15T12:07:46;1068.18;;;987.25;;
38053;SDS011;23859;50.672;7.164;2024-01-15T12:10:14;1087.68;;;995.20;;
38053;SDS011;23859;50.672;7.164;2024-01-15T12:12:47;1097.22;;;999.35;;
38053;SDS011;23859;50.672;7.164;2024-01-15T12:15:18;1021.28;;;940.22;;
38053;SDS011;23859;50.672;7.164;2024-01-15T12:17:45;1087.65;;;994.15;;
38053;SDS011;23859;50.672;7.164;2024-01-15T12:20:12;1115.03;;;999.90;;
38053;SDS011;23859;50.672;7.164;2024-01-15T12:22:39;1129.72;;;999.90;;
38053;SDS011;23859;50.672;7.164;2024-01-15T12:25:05;1095.25;;;996.47;;
38053;SDS011;23859;50.672;7.164;2024-01-15T12:27:31;1146.47;;;999.90;;
38053;SDS011;23859;50.672;7.164;2024-01-15T12:29:58;1095.18;;;997.90;;
38053;SDS011;23859;50.672;7.164;2024-01-15T12:32:24;1059.65;;;979.42;;
38053;SDS011;23859;50.672;7.164;2024-01-15T12:34:51;1065.35;;;976.35;;
38053;SDS011;23859;50.672;7.164;2024-01-15T12:37:19;1111.82;;;999.90;;
38053;SDS011;23859;50.672;7.164;2024-01-15T12:39:46;1103.35;;;999.90;;
38053;SDS011;23859;50.672;7.164;2024-01-15T12:42:16;1111.70;;;999.90;;
38053;SDS011;23859;50.672;7.164;2024-01-15T12:44:42;1109.13;;;999.90;;
38053;SDS011;23859;50.672;7.164;2024-01-15T12:47:12;1160.57;;;999.90;;
38053;SDS011;23859;50.672;7.164;2024-01-15T12:49:39;1082.60;;;993.55;;
38053;SDS011;23859;50.672;7.164;2024-01-15T12:52:08;1080.80;;;990.95;;
38053;SDS011;23859;50.672;7.164;2024-01-15T12:54:34;1118.88;;;999.90;;
38053;SDS011;23859;50.672;7.164;2024-01-15T12:57:00;1128.47;;;999.90;;
38053;SDS011;23859;50.672;7.164;2024-01-15T12:59:27;1085.97;;;993.08;;
38053;SDS011;23859;50.672;7.164;2024-01-15T13:01:53;1112.18;;;999.90;;
38053;SDS011;23859;50.672;7.164;2024-01-15T13:04:20;1132.57;;;999.90;;
38053;SDS011;23859;50.672;7.164;2024-01-15T13:06:48;1107.93;;;999.90;;
38053;SDS011;23859;50.672;7.164;2024-01-15T13:09:14;1119.53;;;999.90;;
38053;SDS011;23859;50.672;7.164;2024-01-15T13:11:42;1109.82;;;999.53;;
38053;SDS011;23859;50.672;7.164;2024-01-15T13:14:11;1147.38;;;999.90;;
38053;SDS011;23859;50.672;7.164;2024-01-15T13:16:40;1150.03;;;999.90;;
38053;SDS011;23859;50.672;7.164;2024-01-15T13:19:07;1110.90;;;999.90;;
38053;SDS011;23859;50.672;7.164;2024-01-15T13:21:36;1137.65;;;999.90;;
38053;SDS011;23859;50.672;7.164;2024-01-15T13:24:02;1107.75;;;999.90;;
38053;SDS011;23859;50.672;7.164;2024-01-15T13:26:30;1123.05;;;999.90;;
38053;SDS011;23859;50.672;7.164;2024-01-15T13:29:00;1137.50;;;999.90;;
38053;SDS011;23859;50.672;7.164;2024-01-15T13:31:30;1141.70;;;999.90;;
38053;SDS011;23859;50.672;7.164;2024-01-15T13:33:56;1132.70;;;999.90;;
38053;SDS011;23859;50.672;7.164;2024-01-15T13:36:23;1197.80;;;999.90;;
38053;SDS011;23859;50.672;7.164;2024-01-15T13:38:50;1092.68;;;998.17;;
38053;SDS011;23859;50.672;7.164;2024-01-15T13:41:17;1039.88;;;961.72;;
38053;SDS011;23859;50.672;7.164;2024-01-15T13:43:53;1036.82;;;955.92;;
38053;SDS011;23859;50.672;7.164;2024-01-15T13:46:20;1039.88;;;952.05;;
38053;SDS011;23859;50.672;7.164;2024-01-15T13:48:48;1025.53;;;946.67;;
38053;SDS011;23859;50.672;7.164;2024-01-15T13:51:14;1080.47;;;992.10;;
38053;SDS011;23859;50.672;7.164;2024-01-15T13:53:40;1160.60;;;999.90;;
38053;SDS011;23859;50.672;7.164;2024-01-15T13:56:06;1080.25;;;992.25;;
38053;SDS011;23859;50.672;7.164;2024-01-15T13:58:35;1130.00;;;999.90;;
38053;SDS011;23859;50.672;7.164;2024-01-15T14:01:02;1080.15;;;992.55;;
38053;SDS011;23859;50.672;7.164;2024-01-15T14:03:30;1064.32;;;979.22;;